Time;durP1;ratioP1;P1;durP2;ratioP2;P2;SDS_P1;SDS_P2;PMS_P1;PMS_P2;Temp;Humidity;BMP_temperature;BMP_pressure;BME280_temperature;BME280_humidity;BME280_pressure;Samples;Min_cycle;Max_cycle;Signal;HPM_P1;HPM_P2
2023/11/14 00:02:08;;;;;;;;;;;;;;;14.74;44.81;100949.75;5090687;28;1142;-48
2023/11/14 00:04:34;;;;;;;;;;;;;;;15.56;45.21;100949.69;5089800;28;1609;-47
2023/11/14 00:07:02;;;;;;;;;;;;;;;15.16;45.70;100951.81;5085072;28;1104;-48
2023/11/14 00:09:28;;;;;;;;;;;;;;;14.98;45.22;100958.47;5092721;28;1140;-46
2023/11/14 00:11:54;;;;;;;;;;;;;;;15.64;45.19;100957.44;5095143;28;1143;-45
2023/11/14 00:14:21;;;;;;;;;;;;;;;15.34;45.87;100955.28;5083034;28;1901;-44
2023/11/14 00:16:46;;;;;;;;;;;;;;;15.00;45.72;100953.59;5084121;28;1051;-45
2023/11/14 00:19:12;;;;;;;;;;;;;;;15.03;45.04;100953.06;5099498;28;1134;-46
2023/11/14 00:21:38;;;;;;;;;;;;;;;14.91;44.93;100954.31;5086222;28;1110;-46
2023/11/14 00:24:04;;;;;;;;;;;;;;;14.90;44.59;100953.50;5087631;28;1323;-50
2023/11/14 00:26:29;;;;;;;;;;;;;;;15.66;45.32;100958.00;5082600;28;1066;-48
2023/11/14 00:28:55;;;;;;;;;;;;;;;15.19;46.00;100958.69;5090404;28;1185;-46
2023/11/14 00:31:21;;;;;;;;;;;;;;;16.54;44.88;100953.03;5099284;28;1085;-46
2023/11/14 00:33:46;;;;;;;;;;;;;;;15.96;46.04;100950.28;5081471;28;1206;-53
2023/11/14 00:36:11;;;;;;;;;;;;;;;15.55;46.14;100951.59;5067825;28;1942;-51
2023/11/14 00:38:37;;;;;;;;;;;;;;;15.43;45.51;100958.34;5098926;28;1159;-53
2023/11/14 00:41:03;;;;;;;;;;;;;;;15.26;45.21;100956.56;5079116;28;1300;-56
2023/11/14 00:43:28;;;;;;;;;;;;;;;15.09;44.96;100956.69;5060693;28;2340;-49
2023/11/14 00:45:54;;;;;;;;;;;;;;;15.11;44.70;100956.41;5078927;28;1114;-51
2023/11/14 00:48:19;;;;;;;;;;;;;;;14.99;44.29;100945.63;5078908;28;1043;-52
2023/11/14 00:50:45;;;;;;;;;;;;;;;15.64;45.43;100946.47;5087207;28;1211;-49
2023/11/14 00:53:11;;;;;;;;;;;;;;;15.19;45.60;100940.38;5086884;28;1156;-50
2023/11/14 00:55:36;;;;;;;;;;;;;;;16.24;45.27;100936.16;5083835;28;1978;-49
2023/11/14 00:58:02;;;;;;;;;;;;;;;15.91;46.33;100945.59;5068622;28;1069;-52
2023/11/14 01:00:27;;;;;;;;;;;;;;;15.57;46.00;100943.13;5083752;28;1150;-50
2023/11/14 01:02:54;;;;;;;;;;;;;;;15.36;45.45;100950.34;5098519;28;1138;-48
2023/11/14 01:05:20;;;;;;;;;;;;;;;15.21;45.40;100940.09;5067036;28;1158;-50
2023/11/14 01:07:47;;;;;;;;;;;;;;;15.15;44.95;100949.34;5086214;28;1181;-50
2023/11/14 01:10:14;;;;;;;;;;;;;;;15.08;44.59;100948.72;5060597;28;1137;-53
2023/11/14 01:12:39;;;;;;;;;;;;;;;15.91;45.51;100945.59;5080190;28;1133;-50
2023/11/14 01:15:05;;;;;;;;;;;;;;;15.43;46.01;100956.47;5090170;28;1984;-51
2023/11/14 01:17:31;;;;;;;;;;;;;;;15.21;45.64;100956.53;5087668;28;1204;-51
2023/11/14 01:19:56;;;;;;;;;;;;;;;15.77;45.89;100949.81;5095564;28;1090;-49
2023/11/14 01:22:22;;;;;;;;;;;;;;;15.37;46.05;100958.31;5087283;28;1113;-50
2023/11/14 01:24:48;;;;;;;;;;;;;;;15.25;45.43;100954.09;5095569;28;1054;-47
2023/11/14 01:27:14;;;;;;;;;;;;;;;15.13;44.98;100959.75;5087681;28;1081;-49
2023/11/14 01:29:40;;;;;;;;;;;;;;;14.96;44.80;100957.94;5091441;28;1043;-46
2023/11/14 01:32:06;;;;;;;;;;;;;;;15.62;45.17;100948.63;5071078;28;1233;-51
2023/11/14 01:34:32;;;;;;;;;;;;;;;15.45;46.20;100940.56;5079980;28;1984;-52
2023/11/14 01:36:58;;;;;;;;;;;;;;;15.12;45.87;100944.38;5088987;28;1146;-47
2023/11/14 01:39:25;;;;;;;;;;;;;;;15.08;45.33;100955.03;5086935;28;1149;-50
2023/11/14 01:41:50;;;;;;;;;;;;;;;15.03;45.01;100950.31;5088329;28;1019;-49
2023/11/14 01:44:16;;;;;;;;;;;;;;;14.95;44.42;100950.78;5097420;28;1129;-48
2023/11/14 01:46:41;;;;;;;;;;;;;;;14.86;44.39;100952.34;5070768;28;1119;-49
2023/11/14 01:49:07;;;;;;;;;;;;;;;14.82;44.09;100957.50;5049525;28;1090;-49
2023/11/14 01:51:32;;;;;;;;;;;;;;;15.65;45.10;100956.34;5077930;28;1638;-48
2023/11/14 01:53:58;;;;;;;;;;;;;;;15.18;45.77;100962.50;5078927;28;1147;-46
2023/11/14 01:56:23;;;;;;;;;;;;;;;15.00;45.09;100963.72;5079311;28;1910;-50
2023/11/14 01:58:49;;;;;;;;;;;;;;;14.98;44.58;100955.75;5066398;28;1103;-47
2023/11/14 02:01:15;;;;;;;;;;;;;;;14.87;44.31;100948.50;5069317;28;1448;-50
2023/11/14 02:03:40;;;;;;;;;;;;;;;15.31;44.60;100947.59;5067915;28;1197;-50
2023/11/14 02:06:07;;;;;;;;;;;;;;;15.57;45.59;100938.47;5069047;28;1122;-50
2023/11/14 02:08:33;;;;;;;;;;;;;;;15.21;45.91;100935.44;5072448;28;1047;-46
2023/11/14 02:10:59;;;;;;;;;;;;;;;16.52;44.99;100936.00;5086464;28;1395;-49
2023/11/14 02:13:24;;;;;;;;;;;;;;;15.82;46.01;100930.72;5082528;28;1118;-51
2023/11/14 02:15:50;;;;;;;;;;;;;;;15.43;45.75;100933.69;5069580;28;1898;-50
2023/11/14 02:18:16;;;;;;;;;;;;;;;15.26;45.69;100933.84;5094599;28;1103;-50
2023/11/14 02:20:41;;;;;;;;;;;;;;;15.83;45.95;100929.63;5079182;28;1369;-49
2023/11/14 02:23:08;;;;;;;;;;;;;;;15.37;46.17;100928.16;5075124;28;1200;-46
2023/11/14 02:25:33;;;;;;;;;;;;;;;15.14;45.64;100925.78;5058862;28;1093;-49
2023/11/14 02:27:59;;;;;;;;;;;;;;;15.10;45.17;100932.88;5081256;28;1202;-47
2023/11/14 02:30:24;;;;;;;;;;;;;;;15.67;45.68;100934.13;5076768;28;1113;-45
2023/11/14 02:32:50;;;;;;;;;;;;;;;15.54;46.20;100939.00;5079678;28;1083;-46
2023/11/14 02:35:15;;;;;;;;;;;;;;;15.25;45.87;100932.16;5086933;28;1921;-48
2023/11/14 02:37:41;;;;;;;;;;;;;;;15.14;45.59;100925.78;5062057;28;2100;-50
2023/11/14 02:40:08;;;;;;;;;;;;;;;15.88;45.59;100935.97;5083564;28;819;-46
2023/11/14 02:42:34;;;;;;;;;;;;;;;15.39;45.99;100928.75;5089987;28;1058;-48
2023/11/14 02:45:00;;;;;;;;;;;;;;;15.12;45.72;100927.94;5068867;28;1537;-46
2023/11/14 02:47:26;;;;;;;;;;;;;;;15.06;45.29;100927.91;5082912;28;1026;-47
2023/11/14 02:49:54;;;;;;;;;;;;;;;15.05;44.54;100923.53;5078577;28;1097;-52
2023/11/14 02:52:20;;;;;;;;;;;;;;;14.87;44.74;100921.13;5095962;28;1085;-51
2023/11/14 02:54:45;;;;;;;;;;;;;;;14.91;44.19;100927.75;5095842;28;1917;-46
2023/11/14 02:57:12;;;;;;;;;;;;;;;15.55;45.49;100934.34;5078809;28;1481;-51
2023/11/14 02:59:37;;;;;;;;;;;;;;;15.16;45.88;100929.09;5092186;28;1023;-48
2023/11/14 03:02:04;;;;;;;;;;;;;;;14.99;45.37;100929.22;5090719;28;1487;-49
2023/11/14 03:04:30;;;;;;;;;;;;;;;14.89;45.00;100933.47;5080900;28;852;-50
2023/11/14 03:06:55;;;;;;;;;;;;;;;14.80;44.87;100924.09;5085103;28;1020;-48
2023/11/14 03:09:21;;;;;;;;;;;;;;;15.26;45.15;100934.66;5058553;28;1221;-48
2023/11/14 03:11:46;;;;;;;;;;;;;;;15.50;45.99;100937.03;5093487;28;1150;-48
2023/11/14 03:14:12;;;;;;;;;;;;;;;15.16;46.03;100938.13;5068821;28;1215;-48
2023/11/14 03:16:37;;;;;;;;;;;;;;;15.02;45.55;100940.44;5090674;28;1901;-47
2023/11/14 03:19:03;;;;;;;;;;;;;;;15.81;45.66;100929.06;5078411;28;1167;-51
2023/11/14 03:21:29;;;;;;;;;;;;;;;15.23;46.23;100929.69;5083058;28;1068;-49
2023/11/14 03:23:54;;;;;;;;;;;;;;;15.09;45.51;100926.56;5085713;28;1225;-49
2023/11/14 03:26:29;;;;;;;;;;;;;;;15.00;45.36;100930.88;5093201;28;1078;-49
2023/11/14 03:28:54;;;;;;;;;;;;;;;14.92;44.71;100928.59;5091778;28;925;-49
2023/11/14 03:31:23;;;;;;;;;;;;;;;15.25;45.42;100913.84;5095575;28;1090;-46
2023/11/14 03:33:48;;;;;;;;;;;;;;;15.57;45.99;100918.44;5083699;28;998;-45
2023/11/14 03:36:14;;;;;;;;;;;;;;;15.18;45.98;100915.94;5076680;28;1974;-49
2023/11/14 03:38:39;;;;;;;;;;;;;;;15.10;45.17;100919.19;5088805;28;1112;-47
2023/11/14 03:41:05;;;;;;;;;;;;;;;15.91;45.29;100920.91;5076337;28;1206;-51
2023/11/14 03:43:30;;;;;;;;;;;;;;;15.32;46.19;100919.06;5076238;28;1146;-49
2023/11/14 03:45:56;;;;;;;;;;;;;;;15.12;45.90;100912.34;5086274;28;1174;-48
2023/11/14 03:48:21;;;;;;;;;;;;;;;16.19;45.20;100919.69;5089446;28;1437;-47
2023/11/14 03:50:47;;;;;;;;;;;;;;;15.48;46.25;100911.81;5083418;28;1030;-49
2023/11/14 03:53:13;;;;;;;;;;;;;;;15.25;45.61;100919.31;5086564;28;1220;-48
2023/11/14 03:55:39;;;;;;;;;;;;;;;15.09;45.54;100914.78;5089103;28;1966;-49
2023/11/14 03:58:06;;;;;;;;;;;;;;;14.99;45.04;100907.31;5102562;28;1007;-51
2023/11/14 04:00:32;;;;;;;;;;;;;;;14.95;44.52;100906.16;5074806;28;2142;-48
2023/11/14 04:02:58;;;;;;;;;;;;;;;14.83;44.32;100892.63;5081920;28;957;-51
2023/11/14 04:05:23;;;;;;;;;;;;;;;15.67;45.58;100902.09;5087058;28;1203;-51
2023/11/14 04:07:49;;;;;;;;;;;;;;;15.19;45.83;100912.13;5076420;28;1060;-46
2023/11/14 04:10:14;;;;;;;;;;;;;;;15.25;45.94;100899.28;5081069;28;1123;-46
2023/11/14 04:12:40;;;;;;;;;;;;;;;15.96;45.58;100900.91;5060276;28;1095;-49
2023/11/14 04:15:06;;;;;;;;;;;;;;;15.30;46.22;100915.78;5091129;28;1910;-47
2023/11/14 04:17:32;;;;;;;;;;;;;;;15.18;45.96;100913.19;5097381;28;907;-49
2023/11/14 04:19:57;;;;;;;;;;;;;;;15.10;45.23;100908.22;5085908;28;1098;-52
2023/11/14 04:22:23;;;;;;;;;;;;;;;14.93;45.26;100903.69;5099779;28;1010;-54
2023/11/14 04:24:48;;;;;;;;;;;;;;;14.84;44.90;100917.03;5098679;28;1065;-49
2023/11/14 04:27:14;;;;;;;;;;;;;;;14.89;44.87;100917.06;5091662;28;1046;-54
2023/11/14 04:29:40;;;;;;;;;;;;;;;15.71;45.92;100927.88;5083836;28;949;-49
2023/11/14 04:32:06;;;;;;;;;;;;;;;15.11;46.40;100931.78;5061331;28;1082;-52
2023/11/14 04:34:33;;;;;;;;;;;;;;;14.96;45.77;100927.00;5079864;28;1970;-53
2023/11/14 04:36:59;;;;;;;;;;;;;;;14.89;45.34;100929.94;5091085;28;1181;-52
2023/11/14 04:39:25;;;;;;;;;;;;;;;14.83;45.28;100926.31;5079279;28;1079;-47
2023/11/14 04:41:51;;;;;;;;;;;;;;;15.36;45.54;100934.75;5068981;28;1095;-51
2023/11/14 04:44:16;;;;;;;;;;;;;;;15.39;46.31;100933.41;5085736;28;1201;-52
2023/11/14 04:46:44;;;;;;;;;;;;;;;15.09;46.19;100939.44;5098342;28;1109;-51
2023/11/14 04:49:10;;;;;;;;;;;;;;;14.89;45.72;100930.75;5085190;28;1113;-56
2023/11/14 04:51:36;;;;;;;;;;;;;;;14.77;45.54;100915.56;5090255;28;1030;-47
2023/11/14 04:54:01;;;;;;;;;;;;;;;15.79;45.83;100923.84;5086111;28;1015;-52
2023/11/14 04:56:27;;;;;;;;;;;;;;;15.22;46.43;100911.59;5088583;28;1910;-52
2023/11/14 04:58:52;;;;;;;;;;;;;;;14.91;45.84;100908.59;5090267;28;1011;-55
2023/11/14 05:01:18;;;;;;;;;;;;;;;14.81;45.55;100912.03;5080303;28;1158;-51
2023/11/14 05:03:43;;;;;;;;;;;;;;;15.78;45.78;100905.72;5090450;28;1052;-52
2023/11/14 05:06:09;;;;;;;;;;;;;;;15.22;46.63;100917.91;5085279;28;1213;-48
2023/11/14 05:08:34;;;;;;;;;;;;;;;15.13;45.86;100927.69;5086913;28;1106;-44
2023/11/14 05:11:03;;;;;;;;;;;;;;;14.98;45.29;100924.81;5078228;28;1075;-48
2023/11/14 05:13:29;;;;;;;;;;;;;;;14.83;45.34;100917.25;5096424;28;1047;-48
2023/11/14 05:15:54;;;;;;;;;;;;;;;14.76;44.92;100925.69;5087777;28;1929;-49
2023/11/14 05:18:22;;;;;;;;;;;;;;;14.70;44.63;100916.59;5078032;28;1087;-51
2023/11/14 05:20:47;;;;;;;;;;;;;;;15.33;45.57;100923.47;5078479;28;1042;-50
2023/11/14 05:23:14;;;;;;;;;;;;;;;15.29;46.51;100923.19;5082651;28;1101;-51
2023/11/14 05:25:40;;;;;;;;;;;;;;;15.00;46.06;100926.22;5086283;28;1070;-51
2023/11/14 05:28:06;;;;;;;;;;;;;;;14.88;45.63;100931.00;5077621;28;1242;-50
2023/11/14 05:30:31;;;;;;;;;;;;;;;15.33;45.59;100935.28;5079873;28;1173;-49
2023/11/14 05:32:57;;;;;;;;;;;;;;;15.52;45.62;100930.19;5089213;28;1547;-49
2023/11/14 05:35:22;;;;;;;;;;;;;;;16.28;43.77;100928.22;5092798;28;1913;-50
2023/11/14 05:37:48;;;;;;;;;;;;;;;17.14;42.06;100933.41;5088468;28;1007;-49
2023/11/14 05:40:13;;;;;;;;;;;;;;;17.41;41.25;100938.66;5097014;28;1069;-50
2023/11/14 05:42:39;;;;;;;;;;;;;;;16.43;43.43;100941.19;5087480;28;1070;-50
2023/11/14 05:45:05;;;;;;;;;;;;;;;17.49;41.42;100929.84;5077709;28;1020;-47
2023/11/14 05:47:32;;;;;;;;;;;;;;;17.06;42.22;100921.88;5088465;28;1185;-49
2023/11/14 05:49:57;;;;;;;;;;;;;;;16.39;43.95;100935.38;5093113;28;1115;-49
2023/11/14 05:52:23;;;;;;;;;;;;;;;17.44;41.67;100927.09;5077702;28;1047;-48
2023/11/14 05:54:48;;;;;;;;;;;;;;;17.03;42.40;100929.84;5095077;28;1906;-47
2023/11/14 05:57:14;;;;;;;;;;;;;;;16.41;43.90;100935.97;5097869;28;1011;-49
2023/11/14 05:59:39;;;;;;;;;;;;;;;17.54;41.42;100938.06;5097025;28;1081;-47
2023/11/14 06:02:09;;;;;;;;;;;;;;;16.99;42.82;100921.31;5097696;28;1166;-49
2023/11/14 06:04:35;;;;;;;;;;;;;;;16.83;43.11;100927.84;5096427;28;1146;-50
2023/11/14 06:07:00;;;;;;;;;;;;;;;17.57;41.72;100921.06;5086054;28;1160;-50
2023/11/14 06:09:26;;;;;;;;;;;;;;;16.83;43.24;100928.69;5089354;28;1082;-47
2023/11/14 06:11:51;;;;;;;;;;;;;;;16.53;44.08;100923.91;5081059;28;1209;-47
2023/11/14 06:14:17;;;;;;;;;;;;;;;17.61;41.77;100926.81;5096846;28;995;-52
2023/11/14 06:16:42;;;;;;;;;;;;;;;16.83;43.43;100938.81;5092388;28;1910;-46
2023/11/14 06:19:08;;;;;;;;;;;;;;;17.41;42.29;100939.47;5080136;28;1099;-48
2023/11/14 06:21:33;;;;;;;;;;;;;;;17.37;42.20;100943.84;5095017;28;995;-50
2023/11/14 06:23:59;;;;;;;;;;;;;;;16.83;43.69;100936.06;5073108;28;1193;-52
2023/11/14 06:26:24;;;;;;;;;;;;;;;17.03;43.42;100930.66;5092358;28;1190;-50
2023/11/14 06:28:50;;;;;;;;;;;;;;;17.52;42.21;100939.47;5090068;28;1351;-52
2023/11/14 06:31:15;;;;;;;;;;;;;;;16.85;43.60;100936.66;5085713;28;1312;-48
2023/11/14 06:33:41;;;;;;;;;;;;;;;16.54;44.25;100936.56;5096575;28;1214;-51
2023/11/14 06:36:07;;;;;;;;;;;;;;;17.53;42.40;100932.84;5083575;28;1897;-49
2023/11/14 06:38:32;;;;;;;;;;;;;;;17.08;43.18;100930.66;5089227;28;1561;-52
2023/11/14 06:40:58;;;;;;;;;;;;;;;16.63;44.49;100925.88;5069594;28;1453;-48
2023/11/14 06:43:24;;;;;;;;;;;;;;;17.27;43.10;100916.38;5094421;28;1300;-52
2023/11/14 06:45:49;;;;;;;;;;;;;;;17.22;43.26;100910.88;5076460;28;1178;-46
2023/11/14 06:48:15;;;;;;;;;;;;;;;16.70;44.41;100912.72;5082319;28;1156;-47
2023/11/14 06:50:40;;;;;;;;;;;;;;;16.95;44.08;100908.41;5089194;28;1367;-51
2023/11/14 06:53:09;;;;;;;;;;;;;;;17.72;42.19;100903.69;5075760;28;1019;-49
2023/11/14 06:55:34;;;;;;;;;;;;;;;16.95;43.92;100898.22;5076542;28;1909;-49
2023/11/14 06:58:00;;;;;;;;;;;;;;;16.60;44.82;100897.03;5080318;28;1194;-49
2023/11/14 07:00:25;;;;;;;;;;;;;;;17.73;42.26;100897.09;5089344;28;1096;-47
2023/11/14 07:02:51;;;;;;;;;;;;;;;17.22;43.38;100910.88;5096362;28;1118;-45
2023/11/14 07:05:17;;;;;;;;;;;;;;;16.73;44.53;100912.16;5064998;28;1454;-46
2023/11/14 07:07:44;;;;;;;;;;;;;;;17.35;43.49;100888.34;5076599;28;1095;-48
2023/11/14 07:10:10;;;;;;;;;;;;;;;17.15;43.90;100885.59;5082197;28;1430;-47
2023/11/14 07:12:36;;;;;;;;;;;;;;;16.72;44.57;100892.13;5089316;28;1354;-48
2023/11/14 07:15:04;;;;;;;;;;;;;;;17.36;43.63;100889.16;5084569;28;1901;-49
2023/11/14 07:17:30;;;;;;;;;;;;;;;16.96;44.14;100888.91;5091238;28;1331;-45
2023/11/14 07:19:57;;;;;;;;;;;;;;;16.58;45.02;100883.59;5091462;28;1169;-49
2023/11/14 07:22:22;;;;;;;;;;;;;;;16.40;45.31;100881.34;5080433;28;1476;-47
2023/11/14 07:24:48;;;;;;;;;;;;;;;17.31;43.66;100881.75;5084266;28;1453;-49
2023/11/14 07:27:15;;;;;;;;;;;;;;;17.19;43.59;100884.78;5076664;28;1414;-50
2023/11/14 07:29:41;;;;;;;;;;;;;;;16.63;45.00;100891.00;5093979;28;1347;-49
2023/11/14 07:32:10;;;;;;;;;;;;;;;16.46;45.45;100890.41;5081529;28;1339;-50
2023/11/14 07:34:35;;;;;;;;;;;;;;;17.06;44.15;100896.31;5082306;28;1901;-51
2023/11/14 07:37:02;;;;;;;;;;;;;;;17.08;43.94;100894.97;5079856;28;1390;-50
2023/11/14 07:39:28;;;;;;;;;;;;;;;16.61;44.84;100895.94;5088651;28;1378;-49
2023/11/14 07:41:53;;;;;;;;;;;;;;;16.50;45.55;100891.53;5087343;28;1362;-48
2023/11/14 07:44:19;;;;;;;;;;;;;;;17.70;42.61;100875.66;5060367;28;1442;-52
2023/11/14 07:46:45;;;;;;;;;;;;;;;16.94;44.11;100885.59;5082568;28;1355;-48
2023/11/14 07:49:10;;;;;;;;;;;;;;;16.56;45.09;100899.50;5084247;28;1390;-50
2023/11/14 07:51:36;;;;;;;;;;;;;;;17.31;43.48;100895.50;5084367;28;1402;-49
2023/11/14 07:54:01;;;;;;;;;;;;;;;17.35;43.52;100887.50;5083690;28;1449;-52
2023/11/14 07:56:28;;;;;;;;;;;;;;;16.78;44.92;100895.72;5084605;28;1899;-50
2023/11/14 07:58:54;;;;;;;;;;;;;;;16.98;44.55;100900.41;5085605;28;1402;-52
2023/11/14 08:01:19;;;;;;;;;;;;;;;17.60;43.07;100886.69;5089231;28;1461;-49
2023/11/14 08:03:45;;;;;;;;;;;;;;;16.90;44.50;100889.97;5091639;28;1394;-50
2023/11/14 08:06:10;;;;;;;;;;;;;;;16.63;44.98;100901.97;5088728;28;1165;-49
2023/11/14 08:08:37;;;;;;;;;;;;;;;16.40;45.69;100898.63;5095855;28;1417;-50
2023/11/14 08:11:02;;;;;;;;;;;;;;;17.18;43.85;100896.03;5089130;28;1382;-50
2023/11/14 08:13:28;;;;;;;;;;;;;;;17.19;43.66;100892.19;5086762;28;1438;-48
2023/11/14 08:15:54;;;;;;;;;;;;;;;16.63;45.05;100888.25;5082909;28;1902;-50
2023/11/14 08:18:19;;;;;;;;;;;;;;;16.49;45.38;100884.38;5090450;28;1454;-52
2023/11/14 08:20:45;;;;;;;;;;;;;;;16.76;45.07;100873.19;5087011;28;1334;-50
2023/11/14 08:23:10;;;;;;;;;;;;;;;17.37;43.27;100882.56;5084048;28;1413;-51
2023/11/14 08:25:36;;;;;;;;;;;;;;;16.74;44.93;100869.88;5083028;28;1418;-48
2023/11/14 08:28:01;;;;;;;;;;;;;;;17.07;44.10;100878.75;5086524;28;1432;-49
2023/11/14 08:30:27;;;;;;;;;;;;;;;17.16;43.92;100881.75;5084438;28;1394;-50
2023/11/14 08:32:55;;;;;;;;;;;;;;;16.73;44.91;100885.53;5084816;28;1323;-50
2023/11/14 08:35:21;;;;;;;;;;;;;;;16.52;45.53;100883.84;5082462;28;1906;-51
2023/11/14 08:37:48;;;;;;;;;;;;;;;17.41;43.57;100857.00;5086849;28;1394;-51
2023/11/14 08:40:14;;;;;;;;;;;;;;;17.28;43.77;100861.13;5088371;28;1413;-49
2023/11/14 08:42:39;;;;;;;;;;;;;;;16.75;45.04;100861.38;5091635;28;1433;-45
2023/11/14 08:45:06;;;;;;;;;;;;;;;16.95;44.63;100865.25;5091526;28;1422;-50
2023/11/14 08:47:31;;;;;;;;;;;;;;;17.53;43.49;100851.22;5088971;28;1418;-49
2023/11/14 08:49:56;;;;;;;;;;;;;;;16.91;44.70;100847.69;5092658;28;1445;-53
2023/11/14 08:52:22;;;;;;;;;;;;;;;16.70;45.16;100847.63;5081386;28;1382;-51
2023/11/14 08:54:48;;;;;;;;;;;;;;;17.68;43.03;100835.78;5086481;28;1917;-52
2023/11/14 08:57:14;;;;;;;;;;;;;;;16.97;44.45;100841.09;5085648;28;1240;-45
2023/11/14 08:59:40;;;;;;;;;;;;;;;16.71;45.41;100837.47;5083565;28;1426;-51
2023/11/14 09:02:06;;;;;;;;;;;;;;;16.53;45.62;100841.56;5087614;28;1484;-48
2023/11/14 09:04:31;;;;;;;;;;;;;;;17.58;43.42;100831.94;5084897;28;1331;-50
2023/11/14 09:06:57;;;;;;;;;;;;;;;17.00;44.56;100824.06;5091761;28;1148;-52
2023/11/14 09:09:23;;;;;;;;;;;;;;;16.66;45.33;100830.06;5086271;28;1441;-49
2023/11/14 09:11:48;;;;;;;;;;;;;;;16.51;45.88;100828.13;5085037;28;1493;-49
2023/11/14 09:14:15;;;;;;;;;;;;;;;16.84;45.05;100814.16;5084910;28;1386;-52
2023/11/14 09:16:41;;;;;;;;;;;;;;;17.85;42.68;100797.78;5082463;28;1902;-52
2023/11/14 09:19:06;;;;;;;;;;;;;;;17.07;44.37;100797.13;5088467;28;1330;-51
2023/11/14 09:21:32;;;;;;;;;;;;;;;16.74;45.35;100796.56;5096141;28;1347;-50
2023/11/14 09:23:58;;;;;;;;;;;;;;;16.59;45.73;100796.53;5097073;28;1441;-50
2023/11/14 09:26:24;;;;;;;;;;;;;;;17.42;44.05;100800.13;5090999;28;1421;-49
2023/11/14 09:28:49;;;;;;;;;;;;;;;17.03;44.62;100779.56;5083301;28;1374;-45
2023/11/14 09:31:15;;;;;;;;;;;;;;;16.66;45.46;100772.41;5085855;28;1162;-47
2023/11/14 09:33:42;;;;;;;;;;;;;;;17.62;43.66;100757.97;5080986;28;1414;-50
2023/11/14 09:36:07;;;;;;;;;;;;;;;17.19;44.30;100746.56;5091369;28;1973;-50
2023/11/14 09:38:33;;;;;;;;;;;;;;;16.82;45.24;100736.72;5083376;28;1409;-52
2023/11/14 09:41:02;;;;;;;;;;;;;;;16.65;45.44;100740.56;5085859;28;1386;-49
2023/11/14 09:43:32;;;;;;;;;;;;;;;16.51;45.76;100740.28;5059707;28;1461;-48
2023/11/14 09:45:58;;;;;;;;;;;;;;;17.76;43.05;100739.75;5068064;28;1255;-49
2023/11/14 09:48:25;;;;;;;;;;;;;;;17.04;44.62;100751.00;5081954;28;1422;-48
2023/11/14 09:50:50;;;;;;;;;;;;;;;16.71;45.49;100739.44;5088254;28;1351;-46
2023/11/14 09:53:16;;;;;;;;;;;;;;;16.54;45.86;100738.91;5072036;28;1304;-49
2023/11/14 09:55:42;;;;;;;;;;;;;;;17.38;44.19;100736.63;5069400;28;1974;-48
2023/11/14 09:58:07;;;;;;;;;;;;;;;17.08;44.59;100741.09;5063161;28;1316;-55
2023/11/14 10:00:33;;;;;;;;;;;;;;;16.70;45.48;100736.97;5097272;28;1070;-48
2023/11/14 10:02:59;;;;;;;;;;;;;;;17.52;43.95;100741.53;5097508;28;1038;-49
2023/11/14 10:05:24;;;;;;;;;;;;;;;17.38;44.07;100725.63;5097328;28;1038;-52
2023/11/14 10:07:50;;;;;;;;;;;;;;;16.86;45.21;100724.09;5091918;28;1416;-50
2023/11/14 10:10:18;;;;;;;;;;;;;;;16.70;45.80;100718.56;5090590;28;1110;-50
2023/11/14 10:12:46;;;;;;;;;;;;;;;17.09;44.82;100719.94;5081179;28;1098;-50
2023/11/14 10:15:12;;;;;;;;;;;;;;;17.16;44.54;100706.72;5088875;28;1898;-52
2023/11/14 10:17:39;;;;;;;;;;;;;;;16.75;45.39;100713.09;5090487;28;1409;-47
2023/11/14 10:20:07;;;;;;;;;;;;;;;16.56;46.04;100710.09;5096551;28;1172;-47
2023/11/14 10:22:34;;;;;;;;;;;;;;;16.94;45.12;100701.56;5082657;28;1189;-45
2023/11/14 10:24:59;;;;;;;;;;;;;;;17.37;44.28;100696.47;5077320;28;1398;-49
2023/11/14 10:27:28;;;;;;;;;;;;;;;16.80;45.29;100703.19;5089863;28;1386;-47
2023/11/14 10:29:54;;;;;;;;;;;;;;;16.57;45.87;100697.19;5084609;28;1371;-50
2023/11/14 10:32:21;;;;;;;;;;;;;;;16.43;46.23;100700.47;5082680;28;1133;-48
2023/11/14 10:34:47;;;;;;;;;;;;;;;17.41;44.35;100692.06;5087884;28;1897;-47
2023/11/14 10:37:12;;;;;;;;;;;;;;;17.01;45.01;100698.53;5091878;28;1363;-49
2023/11/14 10:39:51;;;;;;;;;;;;;;;16.66;45.81;100701.03;5096712;28;1386;-43
2023/11/14 10:42:16;;;;;;;;;;;;;;;17.83;43.11;100680.88;5096512;28;1045;-46
2023/11/14 10:44:56;;;;;;;;;;;;;;;17.09;44.98;100679.53;5094626;28;991;-48
2023/11/14 10:47:24;;;;;;;;;;;;;;;16.74;45.80;100689.47;5097060;28;1354;-45
2023/11/14 10:49:52;;;;;;;;;;;;;;;16.56;46.25;100681.81;5067343;28;1378;-47
2023/11/14 10:52:18;;;;;;;;;;;;;;;16.40;46.40;100673.59;5096247;28;1125;-44
2023/11/14 10:54:43;;;;;;;;;;;;;;;16.63;46.03;100679.59;5072913;28;1910;-48
2023/11/14 10:57:09;;;;;;;;;;;;;;;17.44;44.21;100669.50;5058691;28;1345;-49
2023/11/14 10:59:34;;;;;;;;;;;;;;;16.82;45.42;100668.06;5094525;28;1299;-43
2023/11/14 11:02:00;;;;;;;;;;;;;;;16.56;46.24;100668.09;5078604;28;1437;-48
2023/11/14 11:04:25;;;;;;;;;;;;;;;16.38;46.56;100658.47;5078363;28;1144;-47
2023/11/14 11:06:51;;;;;;;;;;;;;;;17.18;44.89;100665.22;5064780;28;1139;-44
2023/11/14 11:09:17;;;;;;;;;;;;;;;17.36;44.16;100672.03;5095387;28;979;-49
2023/11/14 11:11:43;;;;;;;;;;;;;;;16.82;45.64;100668.06;5096357;28;1378;-45
2023/11/14 11:14:09;;;;;;;;;;;;;;;16.55;46.23;100669.19;5077807;28;1248;-44
2023/11/14 11:16:44;;;;;;;;;;;;;;;17.57;44.10;100667.25;5091924;28;1979;-45
2023/11/14 11:19:11;;;;;;;;;;;;;;;16.96;45.19;100660.91;5091894;28;1157;-48
2023/11/14 11:21:37;;;;;;;;;;;;;;;16.65;46.24;100662.84;5097084;28;1382;-49
2023/11/14 11:24:02;;;;;;;;;;;;;;;16.50;46.50;100655.47;5097872;28;1402;-47
2023/11/14 11:26:28;;;;;;;;;;;;;;;17.66;44.08;100634.50;5089795;28;1387;-43
2023/11/14 11:28:54;;;;;;;;;;;;;;;17.03;45.33;100627.66;5099542;28;1006;-50
2023/11/14 11:31:24;;;;;;;;;;;;;;;16.72;46.02;100619.47;5092383;28;1284;-50
2023/11/14 11:33:49;;;;;;;;;;;;;;;17.10;45.46;100619.94;5103158;28;1163;-44
2023/11/14 11:36:22;;;;;;;;;;;;;;;17.15;45.00;100605.34;5089359;28;1909;-44
2023/11/14 11:38:53;;;;;;;;;;;;;;;16.72;46.21;100614.81;5091131;28;1224;-46
2023/11/14 11:41:19;;;;;;;;;;;;;;;16.51;46.61;100597.56;5095307;28;1296;-45
2023/11/14 11:43:47;;;;;;;;;;;;;;;17.05;45.41;100596.03;5094583;28;1336;-47
2023/11/14 11:46:31;;;;;;;;;;;;;;;17.21;44.92;100587.75;5102625;28;1146;-48
2023/11/14 11:48:57;;;;;;;;;;;;;;;16.75;46.17;100581.28;5102197;28;1200;-46
2023/11/14 11:51:24;;;;;;;;;;;;;;;16.53;46.68;100578.88;5102709;28;1244;-44
2023/11/14 11:53:51;;;;;;;;;;;;;;;16.85;46.03;100577.69;5089101;28;1197;-48
2023/11/14 11:56:35;;;;;;;;;;;;;;;17.33;44.62;100577.22;5099999;28;1902;-42
2023/11/14 11:59:02;;;;;;;;;;;;;;;16.77;45.92;100561.78;5088786;28;1104;-47
2023/11/14 12:01:31;;;;;;;;;;;;;;;16.50;46.62;100551.19;5106725;28;884;-45
2023/11/14 12:04:00;;;;;;;;;;;;;;;16.39;46.81;100551.19;5088913;28;1059;-45
2023/11/14 12:06:26;;;;;;;;;;;;;;;17.58;44.22;100547.94;5080962;28;1135;-47
2023/11/14 12:08:52;;;;;;;;;;;;;;;16.97;45.77;100538.97;5095337;28;1033;-47
2023/11/14 12:11:17;;;;;;;;;;;;;;;16.67;46.28;100537.94;5102932;28;1300;-44
2023/11/14 12:13:47;;;;;;;;;;;;;;;16.46;46.94;100536.38;5095965;28;1304;-45
2023/11/14 12:16:13;;;;;;;;;;;;;;;16.48;46.92;100547.88;5095515;28;1902;-48
2023/11/14 12:18:38;;;;;;;;;;;;;;;17.74;43.96;100540.38;5094968;28;1543;-50
2023/11/14 12:21:05;;;;;;;;;;;;;;;17.15;45.32;100528.41;5098666;28;1070;-48
2023/11/14 12:23:31;;;;;;;;;;;;;;;16.73;46.17;100514.88;5077195;28;1284;-49
2023/11/14 12:25:56;;;;;;;;;;;;;;;16.56;46.77;100514.38;5077001;28;1158;-46
2023/11/14 12:28:22;;;;;;;;;;;;;;;16.58;46.71;100515.72;5093388;28;1272;-42
2023/11/14 12:30:58;;;;;;;;;;;;;;;17.69;44.01;100513.75;5088510;28;1134;-47
2023/11/14 12:33:24;;;;;;;;;;;;;;;16.92;45.91;100517.00;5084704;28;1055;-47
2023/11/14 12:35:55;;;;;;;;;;;;;;;16.68;46.58;100531.34;5096212;28;1898;-47
2023/11/14 12:38:27;;;;;;;;;;;;;;;16.89;46.22;100536.78;5091521;28;1351;-47
2023/11/14 12:41:08;;;;;;;;;;;;;;;17.73;44.13;100539.56;5098810;28;1260;-49
2023/11/14 12:43:34;;;;;;;;;;;;;;;17.01;45.87;100556.53;5096442;28;1026;-49